createdAt,value
2018-12-11T00:02:42.243Z,48.00
2018-12-11T00:05:25.215Z,61.33
2018-12-11T00:08:07.527Z,34.50
2018-12-11T00:10:50.343Z,36.27
2018-12-11T00:13:33.390Z,43.37
2018-12-11T00:16:15.636Z,58.93
2018-12-11T00:18:58.241Z,37.10
2018-12-11T00:21:41.005Z,29.33
2018-12-11T00:24:24.045Z,36.37
2018-12-11T00:27:06.896Z,47.47
2018-12-11T00:29:49.773Z,61.87
2018-12-11T00:32:33.053Z,23.13
2018-12-11T00:35:15.722Z,46.10
2018-12-11T00:37:59.189Z,35.17
2018-12-11T00:40:42.120Z,41.67
2018-12-11T00:43:24.999Z,40.40
2018-12-11T00:46:07.591Z,36.17
2018-12-11T00:48:50.326Z,40.80
2018-12-11T00:51:32.966Z,37.40
2018-12-11T00:54:15.481Z,37.27
2018-12-11T00:56:58.341Z,43.97
2018-12-11T00:59:41.036Z,25.13
2018-12-11T01:02:23.707Z,64.13
2018-12-11T01:05:06.350Z,53.23
2018-12-11T01:07:49.068Z,30.70
2018-12-11T01:10:31.773Z,34.60
2018-12-11T01:13:14.621Z,28.47
2018-12-11T01:15:57.200Z,26.80
2018-12-11T01:18:40.122Z,18.87
2018-12-11T01:21:22.621Z,26.93
2018-12-11T01:24:05.445Z,20.33
2018-12-11T01:26:48.062Z,15.10
2018-12-11T01:29:31.419Z,25.57
2018-12-11T01:32:14.379Z,18.90
2018-12-11T01:34:57.032Z,25.70
2018-12-11T01:37:39.792Z,29.77
2018-12-11T01:40:22.570Z,31.70
2018-12-11T01:43:05.049Z,25.73
2018-12-11T01:45:47.864Z,25.50
2018-12-11T01:48:30.641Z,33.67
2018-12-11T01:51:13.976Z,25.20
2018-12-11T01:53:57.017Z,28.60
2018-12-11T01:56:39.773Z,21.87
2018-12-11T01:59:22.262Z,20.50
2018-12-11T02:02:05.138Z,14.23
2018-12-11T02:04:47.921Z,20.83
2018-12-11T02:07:30.830Z,16.50
2018-12-11T02:10:13.078Z,23.87
2018-12-11T02:12:56.114Z,25.77
2018-12-11T02:15:38.793Z,26.43
2018-12-11T02:18:21.033Z,20.70
2018-12-11T02:21:03.647Z,31.27
2018-12-11T02:23:46.720Z,37.63
2018-12-11T02:26:29.474Z,27.53
2018-12-11T02:29:11.994Z,25.23
2018-12-11T02:31:54.773Z,24.13
2018-12-11T02:34:37.347Z,25.47
2018-12-11T02:37:20.106Z,17.33
2018-12-11T02:40:03.818Z,25.00
2018-12-11T02:42:46.454Z,27.20
2018-12-11T02:45:29.387Z,26.80
2018-12-11T02:48:11.661Z,29.30
2018-12-11T02:50:54.247Z,26.37
2018-12-11T02:53:37.097Z,29.83
2018-12-11T02:56:19.837Z,21.30
2018-12-11T02:59:02.317Z,30.20
2018-12-11T03:01:45.770Z,20.03
2018-12-11T03:04:28.470Z,31.47
2018-12-11T03:07:11.142Z,41.87
2018-12-11T03:09:53.574Z,30.90
2018-12-11T03:12:36.974Z,23.73
2018-12-11T03:15:19.891Z,21.30
2018-12-11T03:18:02.274Z,21.77
2018-12-11T03:20:44.859Z,23.57
2018-12-11T03:23:27.437Z,21.43
2018-12-11T03:26:10.194Z,26.60
2018-12-11T03:28:52.966Z,24.93
2018-12-11T03:31:35.702Z,21.60
2018-12-11T03:34:18.433Z,19.43
2018-12-11T03:37:01.224Z,21.03
2018-12-11T03:39:43.767Z,19.70
2018-12-11T03:42:26.458Z,16.57
2018-12-11T03:45:09.329Z,20.73
2018-12-11T03:47:52.222Z,27.13
2018-12-11T03:50:34.718Z,23.20
2018-12-11T03:53:17.752Z,19.97
2018-12-11T03:56:00.246Z,18.93
2018-12-11T03:58:42.755Z,18.50
2018-12-11T04:01:25.350Z,23.93
2018-12-11T04:04:08.206Z,23.33
2018-12-11T04:06:50.615Z,29.70
2018-12-11T04:09:33.620Z,23.47
2018-12-11T04:12:16.400Z,26.93
2018-12-11T04:14:59.406Z,29.90
2018-12-11T04:17:41.982Z,27.77
2018-12-11T04:20:24.401Z,22.30
2018-12-11T04:23:07.522Z,29.37
2018-12-11T04:25:50.705Z,18.10
2018-12-11T04:28:33.226Z,32.17
2018-12-11T04:31:16.140Z,20.97
2018-12-11T04:33:59.085Z,22.27
2018-12-11T04:36:41.758Z,19.67
2018-12-11T04:39:24.940Z,18.77
2018-12-11T04:42:08.162Z,26.17
2018-12-11T04:44:50.763Z,16.67
2018-12-11T04:47:33.221Z,19.03
2018-12-11T04:50:15.972Z,22.17
2018-12-11T04:52:58.640Z,12.90
2018-12-11T04:55:41.761Z,23.83
2018-12-11T04:58:25.295Z,15.50
2018-12-11T05:01:08.451Z,22.23
2018-12-11T05:03:51.227Z,20.17
2018-12-11T05:06:33.729Z,24.20
2018-12-11T05:09:16.470Z,23.77
2018-12-11T05:11:59.273Z,33.03
2018-12-11T05:14:42.269Z,25.13
2018-12-11T05:17:24.592Z,42.13
2018-12-11T05:20:07.189Z,50.13
2018-12-11T05:22:49.869Z,30.57
2018-12-11T05:25:32.653Z,33.53
2018-12-11T05:28:15.140Z,28.03
2018-12-11T05:30:57.897Z,32.40
2018-12-11T05:33:40.700Z,26.50
2018-12-11T05:36:23.534Z,34.23
2018-12-11T05:39:07.428Z,29.47
2018-12-11T05:41:49.996Z,18.30
2018-12-11T05:44:32.602Z,25.57
2018-12-11T05:47:15.210Z,30.30
2018-12-11T05:49:58.545Z,23.87
2018-12-11T05:52:40.838Z,19.07
2018-12-11T05:55:23.476Z,22.80
2018-12-11T05:58:06.337Z,25.83
2018-12-11T06:00:48.886Z,26.73
2018-12-11T06:03:31.445Z,15.07
2018-12-11T06:06:14.053Z,26.23
2018-12-11T06:08:58.411Z,18.53
2018-12-11T06:11:41.864Z,26.63
2018-12-11T06:14:24.295Z,28.77
2018-12-11T06:17:06.899Z,20.27
2018-12-11T06:19:50.003Z,28.73
2018-12-11T06:22:32.446Z,33.13
2018-12-11T06:25:15.419Z,34.93
2018-12-11T06:27:58.061Z,24.27
2018-12-11T06:30:41.054Z,18.60
2018-12-11T06:33:23.383Z,23.23
2018-12-11T06:36:06.504Z,20.57
2018-12-11T06:38:49.719Z,33.83
2018-12-11T06:41:32.238Z,30.37
2018-12-11T06:44:15.071Z,17.33
2018-12-11T06:46:57.785Z,19.83
2018-12-11T06:49:40.233Z,20.03
2018-12-11T06:52:23.043Z,35.80
2018-12-11T06:55:05.958Z,15.90
2018-12-11T06:57:48.590Z,26.67
2018-12-11T07:00:32.718Z,22.53
2018-12-11T07:03:15.465Z,36.40
2018-12-11T07:05:59.193Z,16.00
2018-12-11T07:08:41.525Z,24.73
2018-12-11T07:11:24.001Z,32.23
2018-12-11T07:14:06.863Z,24.27
2018-12-11T07:16:49.843Z,32.60
2018-12-11T07:19:32.462Z,25.53
2018-12-11T07:22:14.878Z,31.53
2018-12-11T07:24:59.187Z,22.27
2018-12-11T07:27:42.132Z,24.30
2018-12-11T07:30:24.907Z,34.17
2018-12-11T07:33:07.505Z,21.97
2018-12-11T07:35:50.269Z,23.53
2018-12-11T07:38:32.874Z,27.60
2018-12-11T07:41:15.626Z,30.83
2018-12-11T07:43:58.217Z,19.87
2018-12-11T07:46:40.942Z,27.70
2018-12-11T07:49:23.584Z,28.97
2018-12-11T07:52:06.213Z,46.27
2018-12-11T07:54:48.787Z,33.63
2018-12-11T07:57:31.449Z,38.90
2018-12-11T08:00:14.133Z,25.47
2018-12-11T08:02:56.676Z,23.13
2018-12-11T08:05:39.302Z,22.33
2018-12-11T08:08:21.846Z,24.10
2018-12-11T08:11:04.489Z,21.77
2018-12-11T08:13:47.592Z,28.00
2018-12-11T08:16:30.436Z,36.27
2018-12-11T08:19:19.278Z,31.47
2018-12-11T08:22:03.053Z,25.47
2018-12-11T08:24:46.036Z,26.30
2018-12-11T08:27:28.744Z,27.47
2018-12-11T08:32:59.069Z,33.63
2018-12-11T08:35:41.783Z,16.70
2018-12-11T08:38:24.218Z,20.13
2018-12-11T08:41:06.741Z,37.13
2018-12-11T08:43:49.531Z,22.73
2018-12-11T08:46:32.383Z,20.43
2018-12-11T08:49:14.926Z,14.93
2018-12-11T08:51:57.674Z,19.77
2018-12-11T08:54:40.276Z,29.00
2018-12-11T08:57:22.986Z,22.30
2018-12-11T09:00:07.445Z,27.50
2018-12-11T09:02:50.421Z,25.93
2018-12-11T09:05:33.339Z,23.00
2018-12-11T09:08:15.865Z,35.77
2018-12-11T09:10:58.685Z,31.53
2018-12-11T09:13:41.279Z,28.50
2018-12-11T09:16:23.896Z,29.87
2018-12-11T09:19:06.625Z,26.00
2018-12-11T09:21:49.393Z,22.57
2018-12-11T09:24:31.941Z,27.40
2018-12-11T09:27:14.670Z,39.00
2018-12-11T09:29:57.281Z,20.20
2018-12-11T09:32:40.029Z,25.90
2018-12-11T09:35:22.538Z,30.27
2018-12-11T09:38:05.473Z,16.10
2018-12-11T09:40:47.933Z,24.50
2018-12-11T09:43:30.485Z,22.90
2018-12-11T09:46:13.301Z,30.43
2018-12-11T09:48:55.789Z,26.37
2018-12-11T09:51:38.425Z,36.10
2018-12-11T09:54:21.858Z,25.47
2018-12-11T09:57:05.180Z,25.50
2018-12-11T09:59:48.118Z,30.30
2018-12-11T10:02:31.296Z,34.17
2018-12-11T10:05:14.344Z,27.97
2018-12-11T10:07:56.833Z,26.00
2018-12-11T10:10:39.580Z,26.83
2018-12-11T10:13:22.273Z,20.57
2018-12-11T10:16:04.925Z,27.63
2018-12-11T10:18:47.725Z,23.53
2018-12-11T10:21:30.609Z,24.10
2018-12-11T10:24:13.093Z,28.43
2018-12-11T10:26:55.936Z,22.70
2018-12-11T10:29:38.949Z,23.90
2018-12-11T10:32:21.245Z,17.70
2018-12-11T10:35:04.016Z,21.97
2018-12-11T10:37:46.583Z,43.10
2018-12-11T10:40:29.346Z,31.87
2018-12-11T10:43:11.977Z,31.50
2018-12-11T10:45:54.785Z,29.20
2018-12-11T10:48:37.251Z,28.10
2018-12-11T10:51:20.025Z,30.43
2018-12-11T10:54:02.561Z,22.03
2018-12-11T10:56:45.377Z,25.33
2018-12-11T10:59:28.096Z,42.77
2018-12-11T11:02:15.742Z,26.73
2018-12-11T11:05:01.317Z,32.07
2018-12-11T11:07:44.285Z,25.87
2018-12-11T11:10:26.760Z,28.50
2018-12-11T11:13:09.345Z,27.87
2018-12-11T11:15:51.963Z,25.10
2018-12-11T11:18:34.654Z,35.30
2018-12-11T11:21:18.017Z,23.40
2018-12-11T11:24:00.907Z,18.93
2018-12-11T11:26:43.479Z,21.30
2018-12-11T11:29:26.169Z,26.67
2018-12-11T11:32:08.753Z,27.57
2018-12-11T11:34:51.337Z,26.73
2018-12-11T11:37:34.172Z,27.03
2018-12-11T11:40:16.793Z,26.70
2018-12-11T11:42:59.173Z,29.63
2018-12-11T11:45:41.812Z,27.47
2018-12-11T11:48:25.082Z,33.17
2018-12-11T11:51:08.167Z,23.17
2018-12-11T11:53:50.953Z,26.23
2018-12-11T11:56:33.382Z,33.30
2018-12-11T11:59:15.873Z,22.60
2018-12-11T12:01:58.801Z,36.27
2018-12-11T12:04:41.444Z,26.37
2018-12-11T12:07:23.898Z,27.13
2018-12-11T12:10:09.736Z,37.53
2018-12-11T12:12:52.675Z,32.70
2018-12-11T12:15:35.171Z,20.40
2018-12-11T12:18:17.976Z,27.10
2018-12-11T12:21:00.547Z,30.97
2018-12-11T12:23:43.506Z,27.47
2018-12-11T12:26:25.801Z,30.30
2018-12-11T12:29:08.403Z,29.37
2018-12-11T12:31:51.116Z,29.43
2018-12-11T12:34:34.210Z,30.43
2018-12-11T12:37:17.059Z,26.43
2018-12-11T12:40:18.284Z,21.43
2018-12-11T12:43:42.907Z,32.53
2018-12-11T12:51:18.558Z,27.87
2018-12-11T12:54:01.531Z,25.93
2018-12-11T12:56:44.153Z,27.27
2018-12-11T12:59:27.035Z,28.80
2018-12-11T13:02:11.947Z,19.50
2018-12-11T13:04:56.187Z,31.67
2018-12-11T13:07:38.935Z,22.80
2018-12-11T13:10:24.364Z,33.90
2018-12-11T13:13:07.390Z,27.40
2018-12-11T13:15:50.002Z,29.23
2018-12-11T13:18:33.046Z,26.10
2018-12-11T13:21:16.357Z,24.77
2018-12-11T13:23:58.809Z,22.50
2018-12-11T13:26:41.450Z,28.57
2018-12-11T13:29:24.585Z,26.97
2018-12-11T13:32:07.635Z,25.10
2018-12-11T13:34:50.432Z,25.43
2018-12-11T13:37:33.175Z,30.50
2018-12-11T13:40:15.675Z,24.10
2018-12-11T13:42:58.788Z,22.20
2018-12-11T13:45:41.256Z,25.97
2018-12-11T13:48:23.838Z,30.23
2018-12-11T13:51:06.750Z,21.90
2018-12-11T13:53:49.321Z,24.20
2018-12-11T13:56:31.949Z,23.27
2018-12-11T13:59:15.465Z,38.87
2018-12-11T14:01:58.730Z,22.83
2018-12-11T14:04:41.284Z,21.73
2018-12-11T14:07:24.024Z,21.97
2018-12-11T14:10:06.641Z,31.17
2018-12-11T14:12:50.353Z,28.47
2018-12-11T14:15:33.926Z,30.57
2018-12-11T14:18:16.345Z,29.30
2018-12-11T14:20:58.955Z,40.77
2018-12-11T14:23:41.432Z,36.60
2018-12-11T14:26:23.977Z,42.70
2018-12-11T14:29:06.623Z,28.40
2018-12-11T14:31:49.515Z,25.53
2018-12-11T14:34:31.989Z,36.77
2018-12-11T14:37:15.282Z,29.67
2018-12-11T14:39:58.326Z,36.90
2018-12-11T14:42:40.883Z,30.13
2018-12-11T14:45:24.161Z,34.47
2018-12-11T14:48:07.332Z,35.17
2018-12-11T14:50:50.500Z,20.83
2018-12-11T14:53:33.571Z,26.53
2018-12-11T14:56:16.727Z,34.27
2018-12-11T14:59:00.061Z,27.23
2018-12-11T15:01:42.619Z,30.63
2018-12-11T15:04:25.368Z,20.10
2018-12-11T15:07:08.024Z,18.33
2018-12-11T15:09:52.560Z,23.33
2018-12-11T15:12:36.057Z,20.57
2018-12-11T15:15:18.958Z,33.77
2018-12-11T15:18:02.973Z,28.83
2018-12-11T15:20:46.271Z,29.03
2018-12-11T15:23:28.949Z,30.43
2018-12-11T15:26:11.642Z,42.77
2018-12-11T15:28:54.290Z,112.00
2018-12-11T15:31:36.978Z,111.17
2018-12-11T15:34:19.704Z,46.77
2018-12-11T15:37:02.589Z,32.97
2018-12-11T15:39:45.123Z,29.87
2018-12-11T15:42:27.745Z,23.60
2018-12-11T15:45:10.544Z,27.43
2018-12-11T15:47:53.080Z,38.07
2018-12-11T15:50:35.701Z,50.53
2018-12-11T15:53:18.445Z,72.57
2018-12-11T15:56:01.116Z,43.47
2018-12-11T15:58:43.928Z,18.20
2018-12-11T16:01:26.382Z,30.00
2018-12-11T16:04:09.068Z,44.03
2018-12-11T16:06:51.762Z,33.13
2018-12-11T16:09:37.399Z,38.47
2018-12-11T16:12:20.110Z,24.13
2018-12-11T16:15:02.713Z,25.73
2018-12-11T16:17:45.821Z,32.73
2018-12-11T16:20:29.297Z,20.37
2018-12-11T16:23:12.466Z,26.53
2018-12-11T16:25:55.013Z,31.23
2018-12-11T16:28:37.816Z,30.83
2018-12-11T16:31:20.416Z,37.80
2018-12-11T16:34:03.116Z,22.80
2018-12-11T16:36:45.740Z,25.80
2018-12-11T16:39:28.376Z,46.27
2018-12-11T16:42:11.589Z,39.47
2018-12-11T16:44:54.815Z,41.83
2018-12-11T16:47:37.696Z,25.73
2018-12-11T16:50:20.382Z,20.53
2018-12-11T16:53:03.553Z,36.10
2018-12-11T16:55:46.683Z,36.67
2018-12-11T16:58:29.598Z,44.77
2018-12-11T17:01:12.264Z,26.03
2018-12-11T17:03:55.031Z,23.73
2018-12-11T17:06:37.641Z,23.20
2018-12-11T17:09:20.418Z,28.03
2018-12-11T17:12:03.364Z,40.57
2018-12-11T17:14:45.844Z,26.90
2018-12-11T17:17:29.351Z,24.50
2018-12-11T17:20:12.294Z,30.50
2018-12-11T17:22:54.993Z,29.33
2018-12-11T17:25:37.597Z,23.40
2018-12-11T17:28:20.312Z,38.07
2018-12-11T17:31:03.101Z,50.80
2018-12-11T17:33:46.082Z,33.23
2018-12-11T17:36:28.590Z,27.37
2018-12-11T17:39:11.341Z,43.53
2018-12-11T17:41:53.970Z,41.63
2018-12-11T17:44:36.708Z,68.97
2018-12-11T17:47:19.286Z,21.93
2018-12-11T17:50:01.970Z,39.90
2018-12-11T17:52:44.537Z,30.10
2018-12-11T17:55:27.219Z,26.23
2018-12-11T17:58:09.941Z,37.10
2018-12-11T18:00:52.964Z,22.97
2018-12-11T18:03:36.077Z,22.07
2018-12-11T18:06:18.619Z,28.30
2018-12-11T18:09:01.468Z,45.13
2018-12-11T18:11:43.909Z,39.93
2018-12-11T18:14:26.847Z,30.50
2018-12-11T18:17:09.442Z,31.70
2018-12-11T18:19:52.034Z,23.17
2018-12-11T18:22:34.588Z,25.23
2018-12-11T18:25:17.312Z,19.93
2018-12-11T18:27:59.979Z,38.20
2018-12-11T18:30:42.730Z,26.90
2018-12-11T18:33:25.672Z,24.73
2018-12-11T18:36:08.914Z,30.63
2018-12-11T18:38:51.930Z,36.37
2018-12-11T18:41:34.514Z,24.10
2018-12-11T18:44:17.000Z,23.33
2018-12-11T18:46:59.900Z,37.43
2018-12-11T18:49:43.109Z,23.90
2018-12-11T18:52:26.268Z,20.70
2018-12-11T18:55:08.950Z,22.37
2018-12-11T18:57:51.509Z,18.43
2018-12-11T19:00:34.667Z,23.20
2018-12-11T19:03:17.664Z,34.83
2018-12-11T19:06:00.957Z,30.80
2018-12-11T19:08:43.562Z,26.00
2018-12-11T19:11:26.312Z,23.33
2018-12-11T19:14:09.192Z,25.70
2018-12-11T19:16:51.602Z,22.20
2018-12-11T19:19:34.278Z,24.43
2018-12-11T19:22:16.951Z,28.90
2018-12-11T19:24:59.969Z,15.60
2018-12-11T19:27:43.237Z,22.03
2018-12-11T19:30:25.801Z,26.53
2018-12-11T19:33:08.689Z,16.10
2018-12-11T19:35:51.524Z,24.23
2018-12-11T19:38:33.852Z,30.23
2018-12-11T19:41:17.210Z,31.17
2018-12-11T19:44:00.236Z,23.33
2018-12-11T19:46:42.785Z,22.07
2018-12-11T19:49:25.476Z,35.80
2018-12-11T19:52:08.246Z,21.80
2018-12-11T19:54:50.990Z,16.30
2018-12-11T19:57:33.540Z,19.33
2018-12-11T20:00:16.214Z,29.40
2018-12-11T20:02:58.906Z,23.57
2018-12-11T20:05:41.591Z,25.10
2018-12-11T20:08:24.201Z,33.03
2018-12-11T20:11:06.994Z,29.97
2018-12-11T20:13:49.685Z,39.90
2018-12-11T20:16:32.453Z,21.00
2018-12-11T20:19:15.753Z,20.57
2018-12-11T20:21:58.381Z,26.23
2018-12-11T20:24:41.277Z,23.20
2018-12-11T20:27:23.784Z,25.23
2018-12-11T20:30:07.954Z,19.43
2018-12-11T20:32:51.069Z,35.23
2018-12-11T20:35:34.071Z,27.93
2018-12-11T20:38:16.331Z,20.20
2018-12-11T20:40:59.195Z,21.43
2018-12-11T20:43:42.555Z,25.03
2018-12-11T20:46:25.412Z,18.90
2018-12-11T20:49:08.798Z,20.93
2018-12-11T20:51:52.885Z,21.73
2018-12-11T20:54:35.539Z,19.70
2018-12-11T20:57:18.913Z,18.90
2018-12-11T21:00:04.590Z,26.37
2018-12-11T21:02:47.384Z,36.37
2018-12-11T21:05:30.342Z,25.67
2018-12-11T21:08:13.926Z,23.10
2018-12-11T21:10:56.496Z,21.50
2018-12-11T21:13:39.399Z,29.77
2018-12-11T21:16:21.725Z,32.17
2018-12-11T21:19:11.263Z,25.33
2018-12-11T21:21:54.148Z,29.50
2018-12-11T21:24:36.641Z,28.07
2018-12-11T21:27:19.505Z,23.07
2018-12-11T21:30:01.881Z,27.10
2018-12-11T21:32:44.484Z,32.30
2018-12-11T21:35:28.997Z,22.87
2018-12-11T21:38:12.017Z,28.33
2018-12-11T21:40:55.253Z,23.80
2018-12-11T21:43:38.105Z,31.07
2018-12-11T21:46:20.806Z,28.33
2018-12-11T21:49:03.472Z,23.00
2018-12-11T21:51:46.096Z,34.80
2018-12-11T21:54:28.668Z,20.07
2018-12-11T21:57:11.257Z,21.33
2018-12-11T21:59:54.321Z,25.60
2018-12-11T22:02:36.704Z,25.00
2018-12-11T22:05:19.381Z,19.20
2018-12-11T22:08:01.733Z,15.00
2018-12-11T22:10:44.638Z,21.10
2018-12-11T22:13:27.114Z,22.13
2018-12-11T22:16:10.030Z,18.67
2018-12-11T22:18:52.405Z,21.97
2018-12-11T22:21:34.720Z,13.73
2018-12-11T22:24:17.502Z,21.17
2018-12-11T22:27:00.145Z,28.40
2018-12-11T22:29:42.568Z,29.20
2018-12-11T22:32:25.348Z,98.90
2018-12-11T22:35:08.065Z,51.43
2018-12-11T22:37:50.918Z,44.93
2018-12-11T22:40:33.890Z,54.47
2018-12-11T22:43:16.178Z,48.00
2018-12-11T22:46:00.082Z,27.13
2018-12-11T22:48:42.586Z,49.47
2018-12-11T22:51:25.717Z,36.63
2018-12-11T22:54:09.065Z,62.70
2018-12-11T22:56:51.401Z,96.43
2018-12-11T22:59:33.981Z,238.90
2018-12-11T23:02:16.734Z,319.93
2018-12-11T23:04:59.417Z,224.60
2018-12-11T23:07:42.193Z,102.67
2018-12-11T23:10:24.882Z,73.60
2018-12-11T23:13:07.721Z,34.23
2018-12-11T23:15:50.181Z,42.07
2018-12-11T23:18:32.883Z,26.17
2018-12-11T23:21:15.705Z,214.63
2018-12-11T23:23:58.244Z,59.57
2018-12-11T23:26:40.963Z,74.23
2018-12-11T23:29:23.709Z,111.93
2018-12-11T23:32:06.428Z,115.67
2018-12-11T23:34:50.469Z,136.97
2018-12-11T23:37:32.944Z,142.30
2018-12-11T23:40:15.597Z,188.03
2018-12-11T23:42:58.342Z,180.33
2018-12-11T23:45:41.524Z,46.83
2018-12-11T23:48:23.930Z,141.90
2018-12-11T23:51:06.562Z,15.40
2018-12-11T23:53:49.197Z,58.37
2018-12-11T23:56:31.740Z,45.40
2018-12-11T23:59:14.824Z,33.80
